sensor_id;sensor_type;location;lat;lon;timestamp;temperature;humidity
3308;DHT22;1666;48.898;9.182;2022-12-15T00:00:22;-1.70;29.40
3308;DHT22;1666;48.898;9.182;2022-12-15T00:03:06;-1.70;29.90
3308;DHT22;1666;48.898;9.182;2022-12-15T00:08:27;-1.70;29.70
3308;DHT22;1666;48.898;9.182;2022-12-15T00:11:08;-1.80;28.70
3308;DHT22;1666;48.898;9.182;2022-12-15T00:13:50;-1.80;28.80
3308;DHT22;1666;48.898;9.182;2022-12-15T00:16:32;-1.80;28.90
3308;DHT22;1666;48.898;9.182;2022-12-15T00:19:14;-1.80;29.30
3308;DHT22;1666;48.898;9.182;2022-12-15T00:21:55;-1.80;29.50
3308;DHT22;1666;48.898;9.182;2022-12-15T00:24:40;-1.80;28.90
3308;DHT22;1666;48.898;9.182;2022-12-15T00:27:22;-1.80;29.00
3308;DHT22;1666;48.898;9.182;2022-12-15T00:30:06;-1.80;28.70
3308;DHT22;1666;48.898;9.182;2022-12-15T00:32:48;-1.80;28.80
3308;DHT22;1666;48.898;9.182;2022-12-15T00:35:30;-1.80;28.80
3308;DHT22;1666;48.898;9.182;2022-12-15T00:38:14;-1.70;29.20
3308;DHT22;1666;48.898;9.182;2022-12-15T00:40:59;-1.70;28.80
3308;DHT22;1666;48.898;9.182;2022-12-15T00:43:30;-1.80;29.00
3308;DHT22;1666;48.898;9.182;2022-12-15T00:46:01;-1.80;29.50
3308;DHT22;1666;48.898;9.182;2022-12-15T00:48:44;-1.80;29.90
3308;DHT22;1666;48.898;9.182;2022-12-15T00:51:14;-1.90;29.30
3308;DHT22;1666;48.898;9.182;2022-12-15T00:53:42;-1.90;29.90
3308;DHT22;1666;48.898;9.182;2022-12-15T00:56:27;-1.80;30.70
3308;DHT22;1666;48.898;9.182;2022-12-15T00:59:11;-1.80;30.70
3308;DHT22;1666;48.898;9.182;2022-12-15T01:01:53;-1.80;30.90
3308;DHT22;1666;48.898;9.182;2022-12-15T01:04:35;-1.80;31.00
3308;DHT22;1666;48.898;9.182;2022-12-15T01:07:18;-1.80;31.40
3308;DHT22;1666;48.898;9.182;2022-12-15T01:10:00;-1.80;30.30
3308;DHT22;1666;48.898;9.182;2022-12-15T01:12:45;-1.80;31.00
3308;DHT22;1666;48.898;9.182;2022-12-15T01:15:27;-1.80;30.80
3308;DHT22;1666;48.898;9.182;2022-12-15T01:18:10;-1.80;30.20
3308;DHT22;1666;48.898;9.182;2022-12-15T01:20:56;-1.90;30.00
3308;DHT22;1666;48.898;9.182;2022-12-15T01:23:26;-1.90;30.40
3308;DHT22;1666;48.898;9.182;2022-12-15T01:25:57;-1.90;30.00
3308;DHT22;1666;48.898;9.182;2022-12-15T01:28:30;-1.90;30.20
3308;DHT22;1666;48.898;9.182;2022-12-15T01:31:00;-1.90;30.30
3308;DHT22;1666;48.898;9.182;2022-12-15T01:33:29;-1.90;30.30
3308;DHT22;1666;48.898;9.182;2022-12-15T01:36:00;-1.90;30.00
3308;DHT22;1666;48.898;9.182;2022-12-15T01:38:30;-1.90;30.40
3308;DHT22;1666;48.898;9.182;2022-12-15T01:41:03;-1.90;30.00
3308;DHT22;1666;48.898;9.182;2022-12-15T01:43:38;-1.90;29.90
3308;DHT22;1666;48.898;9.182;2022-12-15T01:46:08;-1.90;29.90
3308;DHT22;1666;48.898;9.182;2022-12-15T01:48:41;-1.90;30.50
3308;DHT22;1666;48.898;9.182;2022-12-15T01:51:19;-2.00;30.00
3308;DHT22;1666;48.898;9.182;2022-12-15T01:53:56;-1.90;30.50
3308;DHT22;1666;48.898;9.182;2022-12-15T01:56:26;-1.90;30.90
3308;DHT22;1666;48.898;9.182;2022-12-15T01:59:08;-1.90;30.80
3308;DHT22;1666;48.898;9.182;2022-12-15T02:01:41;-2.00;30.60
3308;DHT22;1666;48.898;9.182;2022-12-15T02:04:21;-2.00;31.60
3308;DHT22;1666;48.898;9.182;2022-12-15T02:06:51;-2.00;32.20
3308;DHT22;1666;48.898;9.182;2022-12-15T02:09:21;-1.80;32.40
3308;DHT22;1666;48.898;9.182;2022-12-15T02:11:58;-1.80;32.50
3308;DHT22;1666;48.898;9.182;2022-12-15T02:14:46;-1.80;31.20
3308;DHT22;1666;48.898;9.182;2022-12-15T02:17:26;-1.90;32.30
3308;DHT22;1666;48.898;9.182;2022-12-15T02:20:25;-1.80;32.00
3308;DHT22;1666;48.898;9.182;2022-12-15T02:28:55;-1.90;31.50
3308;DHT22;1666;48.898;9.182;2022-12-15T02:36:51;-1.90;31.90
3308;DHT22;1666;48.898;9.182;2022-12-15T02:39:22;-1.90;30.30
3308;DHT22;1666;48.898;9.182;2022-12-15T02:41:51;-1.80;32.00
3308;DHT22;1666;48.898;9.182;2022-12-15T02:44:22;-1.90;31.80
3308;DHT22;1666;48.898;9.182;2022-12-15T02:49:53;-1.90;31.90
3308;DHT22;1666;48.898;9.182;2022-12-15T02:52:41;-1.90;32.30
3308;DHT22;1666;48.898;9.182;2022-12-15T02:55:21;-1.90;32.30
3308;DHT22;1666;48.898;9.182;2022-12-15T02:57:58;-1.90;32.30
3308;DHT22;1666;48.898;9.182;2022-12-15T03:00:35;-1.90;32.30
3308;DHT22;1666;48.898;9.182;2022-12-15T03:03:06;-1.90;32.30
3308;DHT22;1666;48.898;9.182;2022-12-15T03:05:37;-2.00;31.60
3308;DHT22;1666;48.898;9.182;2022-12-15T03:08:09;-1.90;32.40
3308;DHT22;1666;48.898;9.182;2022-12-15T03:10:39;-1.90;32.30
3308;DHT22;1666;48.898;9.182;2022-12-15T03:13:09;-1.90;32.30
3308;DHT22;1666;48.898;9.182;2022-12-15T03:15:40;-1.90;31.90
3308;DHT22;1666;48.898;9.182;2022-12-15T03:18:09;-1.90;32.30
3308;DHT22;1666;48.898;9.182;2022-12-15T03:20:39;-1.90;31.90
3308;DHT22;1666;48.898;9.182;2022-12-15T03:23:12;-1.90;32.30
3308;DHT22;1666;48.898;9.182;2022-12-15T03:25:43;-1.90;32.30
3308;DHT22;1666;48.898;9.182;2022-12-15T03:28:16;-1.90;32.40
3308;DHT22;1666;48.898;9.182;2022-12-15T03:30:47;-1.80;32.00
3308;DHT22;1666;48.898;9.182;2022-12-15T03:33:18;-2.00;30.40
3308;DHT22;1666;48.898;9.182;2022-12-15T03:35:48;-1.90;31.60
3308;DHT22;1666;48.898;9.182;2022-12-15T03:38:21;-1.90;32.20
3308;DHT22;1666;48.898;9.182;2022-12-15T03:40:50;-1.90;32.20
3308;DHT22;1666;48.898;9.182;2022-12-15T03:43:21;-1.80;32.00
3308;DHT22;1666;48.898;9.182;2022-12-15T03:45:50;-1.90;30.40
3308;DHT22;1666;48.898;9.182;2022-12-15T03:48:20;-1.90;31.70
3308;DHT22;1666;48.898;9.182;2022-12-15T03:50:50;-1.90;32.00
3308;DHT22;1666;48.898;9.182;2022-12-15T03:53:23;-1.90;32.00
3308;DHT22;1666;48.898;9.182;2022-12-15T03:55:54;-1.90;32.00
3308;DHT22;1666;48.898;9.182;2022-12-15T03:58:24;-1.90;32.40
3308;DHT22;1666;48.898;9.182;2022-12-15T04:00:54;-1.90;32.10
3308;DHT22;1666;48.898;9.182;2022-12-15T04:03:24;-1.90;31.10
3308;DHT22;1666;48.898;9.182;2022-12-15T04:05:55;-2.00;31.20
3308;DHT22;1666;48.898;9.182;2022-12-15T04:08:27;-1.90;31.20
3308;DHT22;1666;48.898;9.182;2022-12-15T04:10:57;-1.80;30.60
3308;DHT22;1666;48.898;9.182;2022-12-15T04:13:27;-1.80;30.70
3308;DHT22;1666;48.898;9.182;2022-12-15T04:16:00;-1.80;30.40
3308;DHT22;1666;48.898;9.182;2022-12-15T04:18:31;-1.80;30.40
3308;DHT22;1666;48.898;9.182;2022-12-15T04:21:01;-1.70;30.20
3308;DHT22;1666;48.898;9.182;2022-12-15T04:23:31;-1.80;28.80
3308;DHT22;1666;48.898;9.182;2022-12-15T04:26:01;-1.80;29.10
3308;DHT22;1666;48.898;9.182;2022-12-15T04:28:43;-1.90;27.80
3308;DHT22;1666;48.898;9.182;2022-12-15T04:31:27;-1.90;28.70
3308;DHT22;1666;48.898;9.182;2022-12-15T04:34:12;-1.90;28.70
3308;DHT22;1666;48.898;9.182;2022-12-15T04:36:56;-1.90;28.10
3308;DHT22;1666;48.898;9.182;2022-12-15T04:39:43;-1.80;28.90
3308;DHT22;1666;48.898;9.182;2022-12-15T04:42:27;-1.90;28.60
3308;DHT22;1666;48.898;9.182;2022-12-15T04:45:11;-1.80;29.10
3308;DHT22;1666;48.898;9.182;2022-12-15T04:47:56;-1.80;29.50
3308;DHT22;1666;48.898;9.182;2022-12-15T04:50:40;-1.80;29.00
3308;DHT22;1666;48.898;9.182;2022-12-15T04:53:22;-1.70;29.10
3308;DHT22;1666;48.898;9.182;2022-12-15T04:56:09;-1.70;29.00
3308;DHT22;1666;48.898;9.182;2022-12-15T05:04:14;-1.80;28.30
3308;DHT22;1666;48.898;9.182;2022-12-15T05:06:57;-1.60;28.90
3308;DHT22;1666;48.898;9.182;2022-12-15T05:09:39;-1.70;28.30
3308;DHT22;1666;48.898;9.182;2022-12-15T05:12:28;-1.60;28.30
3308;DHT22;1666;48.898;9.182;2022-12-15T05:15:11;-1.60;28.10
3308;DHT22;1666;48.898;9.182;2022-12-15T05:17:53;-1.70;27.60
3308;DHT22;1666;48.898;9.182;2022-12-15T05:20:38;-1.60;27.90
3308;DHT22;1666;48.898;9.182;2022-12-15T05:23:24;-1.60;28.10
3308;DHT22;1666;48.898;9.182;2022-12-15T05:26:06;-1.60;28.20
3308;DHT22;1666;48.898;9.182;2022-12-15T05:28:49;-1.60;27.60
3308;DHT22;1666;48.898;9.182;2022-12-15T05:31:31;-1.60;27.50
3308;DHT22;1666;48.898;9.182;2022-12-15T05:34:19;-1.70;27.60
3308;DHT22;1666;48.898;9.182;2022-12-15T05:36:55;-1.70;28.50
3308;DHT22;1666;48.898;9.182;2022-12-15T05:39:26;-1.70;28.10
3308;DHT22;1666;48.898;9.182;2022-12-15T05:41:56;-1.70;28.10
3308;DHT22;1666;48.898;9.182;2022-12-15T05:44:27;-1.70;28.60
3308;DHT22;1666;48.898;9.182;2022-12-15T05:46:57;-1.70;28.80
3308;DHT22;1666;48.898;9.182;2022-12-15T05:49:27;-1.60;28.90
3308;DHT22;1666;48.898;9.182;2022-12-15T05:51:59;-1.70;28.80
3308;DHT22;1666;48.898;9.182;2022-12-15T05:54:29;-1.70;28.80
3308;DHT22;1666;48.898;9.182;2022-12-15T05:56:59;-1.70;28.90
3308;DHT22;1666;48.898;9.182;2022-12-15T05:59:29;-1.60;29.10
3308;DHT22;1666;48.898;9.182;2022-12-15T06:01:59;-1.60;28.90
3308;DHT22;1666;48.898;9.182;2022-12-15T06:04:29;-1.60;28.90
3308;DHT22;1666;48.898;9.182;2022-12-15T06:07:01;-1.60;28.90
3308;DHT22;1666;48.898;9.182;2022-12-15T06:09:31;-1.60;28.90
3308;DHT22;1666;48.898;9.182;2022-12-15T06:12:01;-1.60;28.80
3308;DHT22;1666;48.898;9.182;2022-12-15T06:14:31;-1.60;28.20
3308;DHT22;1666;48.898;9.182;2022-12-15T06:17:02;-1.50;28.20
3308;DHT22;1666;48.898;9.182;2022-12-15T06:19:31;-1.50;27.40
3308;DHT22;1666;48.898;9.182;2022-12-15T06:22:04;-1.50;27.30
3308;DHT22;1666;48.898;9.182;2022-12-15T06:24:34;-1.50;26.80
3308;DHT22;1666;48.898;9.182;2022-12-15T06:27:04;-1.40;26.60
3308;DHT22;1666;48.898;9.182;2022-12-15T06:29:35;-1.50;26.10
3308;DHT22;1666;48.898;9.182;2022-12-15T06:32:04;-1.50;26.40
3308;DHT22;1666;48.898;9.182;2022-12-15T06:34:34;-1.50;26.30
3308;DHT22;1666;48.898;9.182;2022-12-15T06:37:06;-1.50;26.50
3308;DHT22;1666;48.898;9.182;2022-12-15T06:39:36;-1.50;26.50
3308;DHT22;1666;48.898;9.182;2022-12-15T06:42:06;-1.50;26.50
3308;DHT22;1666;48.898;9.182;2022-12-15T06:44:36;-1.50;26.40
3308;DHT22;1666;48.898;9.182;2022-12-15T06:47:06;-1.40;25.90
3308;DHT22;1666;48.898;9.182;2022-12-15T06:49:36;-1.40;25.40
3308;DHT22;1666;48.898;9.182;2022-12-15T06:52:08;-1.40;25.60
3308;DHT22;1666;48.898;9.182;2022-12-15T06:54:38;-1.40;25.80
3308;DHT22;1666;48.898;9.182;2022-12-15T06:57:08;-1.40;26.40
3308;DHT22;1666;48.898;9.182;2022-12-15T06:59:38;-1.50;26.20
3308;DHT22;1666;48.898;9.182;2022-12-15T07:02:14;-1.50;26.90
3308;DHT22;1666;48.898;9.182;2022-12-15T07:04:52;-1.50;27.10
3308;DHT22;1666;48.898;9.182;2022-12-15T07:07:25;-1.50;27.10
3308;DHT22;1666;48.898;9.182;2022-12-15T07:09:55;-1.50;27.40
3308;DHT22;1666;48.898;9.182;2022-12-15T07:12:25;-1.50;27.90
3308;DHT22;1666;48.898;9.182;2022-12-15T07:14:55;-1.50;28.20
3308;DHT22;1666;48.898;9.182;2022-12-15T07:17:28;-1.40;28.20
3308;DHT22;1666;48.898;9.182;2022-12-15T07:19:57;-1.50;28.60
3308;DHT22;1666;48.898;9.182;2022-12-15T07:22:30;-1.50;28.70
3308;DHT22;1666;48.898;9.182;2022-12-15T07:25:00;-1.50;28.90
3308;DHT22;1666;48.898;9.182;2022-12-15T07:27:30;-1.40;29.00
3308;DHT22;1666;48.898;9.182;2022-12-15T07:30:00;-1.40;29.30
3308;DHT22;1666;48.898;9.182;2022-12-15T07:32:30;-1.30;29.30
3308;DHT22;1666;48.898;9.182;2022-12-15T07:35:00;-1.50;27.80
3308;DHT22;1666;48.898;9.182;2022-12-15T07:37:34;-1.30;29.00
3308;DHT22;1666;48.898;9.182;2022-12-15T07:40:05;-1.40;28.40
3308;DHT22;1666;48.898;9.182;2022-12-15T07:42:35;-1.30;28.20
3308;DHT22;1666;48.898;9.182;2022-12-15T07:45:06;-1.40;27.20
3308;DHT22;1666;48.898;9.182;2022-12-15T07:47:36;-1.40;26.40
3308;DHT22;1666;48.898;9.182;2022-12-15T07:50:07;-1.40;24.40
3308;DHT22;1666;48.898;9.182;2022-12-15T07:52:40;-1.40;25.70
3308;DHT22;1666;48.898;9.182;2022-12-15T07:55:09;-1.40;25.20
3308;DHT22;1666;48.898;9.182;2022-12-15T07:57:41;-1.30;24.60
3308;DHT22;1666;48.898;9.182;2022-12-15T08:00:12;-1.20;23.90
3308;DHT22;1666;48.898;9.182;2022-12-15T08:02:43;-1.20;23.10
3308;DHT22;1666;48.898;9.182;2022-12-15T08:05:16;-1.30;23.30
3308;DHT22;1666;48.898;9.182;2022-12-15T08:07:48;-1.20;23.10
3308;DHT22;1666;48.898;9.182;2022-12-15T08:10:18;-1.20;23.60
3308;DHT22;1666;48.898;9.182;2022-12-15T08:12:48;-1.20;23.10
3308;DHT22;1666;48.898;9.182;2022-12-15T08:15:18;-1.10;22.50
3308;DHT22;1666;48.898;9.182;2022-12-15T08:17:48;-1.20;20.90
3308;DHT22;1666;48.898;9.182;2022-12-15T08:20:17;-1.20;19.50
3308;DHT22;1666;48.898;9.182;2022-12-15T08:22:50;-1.20;19.50
3308;DHT22;1666;48.898;9.182;2022-12-15T08:25:20;-1.10;19.00
3308;DHT22;1666;48.898;9.182;2022-12-15T08:27:50;-1.10;17.60
3308;DHT22;1666;48.898;9.182;2022-12-15T08:30:20;-1.00;17.50
3308;DHT22;1666;48.898;9.182;2022-12-15T08:32:50;-0.90;17.20
3308;DHT22;1666;48.898;9.182;2022-12-15T08:35:20;-0.90;17.40
3308;DHT22;1666;48.898;9.182;2022-12-15T08:38:12;-0.90;17.30
3308;DHT22;1666;48.898;9.182;2022-12-15T08:40:42;-0.90;17.30
3308;DHT22;1666;48.898;9.182;2022-12-15T08:43:12;-0.90;16.60
3308;DHT22;1666;48.898;9.182;2022-12-15T08:45:42;-0.80;16.00
3308;DHT22;1666;48.898;9.182;2022-12-15T08:48:12;-0.80;15.90
3308;DHT22;1666;48.898;9.182;2022-12-15T08:50:43;-0.70;16.00
3308;DHT22;1666;48.898;9.182;2022-12-15T08:53:16;-0.80;15.00
3308;DHT22;1666;48.898;9.182;2022-12-15T08:56:02;-0.70;15.80
3308;DHT22;1666;48.898;9.182;2022-12-15T08:58:32;-0.70;14.50
3308;DHT22;1666;48.898;9.182;2022-12-15T09:01:04;-0.70;14.80
3308;DHT22;1666;48.898;9.182;2022-12-15T09:03:35;-0.60;14.30
3308;DHT22;1666;48.898;9.182;2022-12-15T09:06:07;-0.60;14.50
3308;DHT22;1666;48.898;9.182;2022-12-15T09:08:40;-0.60;13.90
3308;DHT22;1666;48.898;9.182;2022-12-15T09:11:14;-0.70;13.80
3308;DHT22;1666;48.898;9.182;2022-12-15T09:13:44;-0.70;13.90
3308;DHT22;1666;48.898;9.182;2022-12-15T09:16:15;-0.60;14.00
3308;DHT22;1666;48.898;9.182;2022-12-15T09:18:47;-0.60;14.10
3308;DHT22;1666;48.898;9.182;2022-12-15T09:21:18;-0.60;14.60
3308;DHT22;1666;48.898;9.182;2022-12-15T09:23:53;-0.50;14.50
3308;DHT22;1666;48.898;9.182;2022-12-15T09:26:28;-0.40;13.80
3308;DHT22;1666;48.898;9.182;2022-12-15T09:28:58;-0.40;12.70
3308;DHT22;1666;48.898;9.182;2022-12-15T09:31:30;-0.40;12.70
3308;DHT22;1666;48.898;9.182;2022-12-15T09:34:00;-0.40;12.70
3308;DHT22;1666;48.898;9.182;2022-12-15T09:36:31;-0.50;12.60
3308;DHT22;1666;48.898;9.182;2022-12-15T09:39:03;-0.40;13.10
3308;DHT22;1666;48.898;9.182;2022-12-15T09:41:35;-0.40;12.70
3308;DHT22;1666;48.898;9.182;2022-12-15T09:44:09;-0.40;11.00
3308;DHT22;1666;48.898;9.182;2022-12-15T09:49:42;-0.30;11.90
3308;DHT22;1666;48.898;9.182;2022-12-15T09:52:16;-0.40;11.50
3308;DHT22;1666;48.898;9.182;2022-12-15T09:54:49;-0.30;11.60
3308;DHT22;1666;48.898;9.182;2022-12-15T09:57:25;-0.30;11.80
3308;DHT22;1666;48.898;9.182;2022-12-15T10:00:15;-0.30;11.50
3308;DHT22;1666;48.898;9.182;2022-12-15T10:03:07;-0.40;11.30
3308;DHT22;1666;48.898;9.182;2022-12-15T10:05:55;-0.20;12.30
3308;DHT22;1666;48.898;9.182;2022-12-15T10:08:49;-0.20;10.80
3308;DHT22;1666;48.898;9.182;2022-12-15T10:11:40;-0.20;11.20
3308;DHT22;1666;48.898;9.182;2022-12-15T10:14:24;-0.20;10.80
3308;DHT22;1666;48.898;9.182;2022-12-15T10:17:05;-0.20;10.00
3308;DHT22;1666;48.898;9.182;2022-12-15T10:19:43;-0.20;10.80
3308;DHT22;1666;48.898;9.182;2022-12-15T10:22:21;-0.10;11.60
3308;DHT22;1666;48.898;9.182;2022-12-15T10:24:52;-0.20;11.20
3308;DHT22;1666;48.898;9.182;2022-12-15T10:27:57;-0.20;11.60
3308;DHT22;1666;48.898;9.182;2022-12-15T10:30:32;-0.20;10.00
3308;DHT22;1666;48.898;9.182;2022-12-15T10:33:10;0.00;9.60
3308;DHT22;1666;48.898;9.182;2022-12-15T10:35:46;-0.10;9.40
3308;DHT22;1666;48.898;9.182;2022-12-15T10:38:23;0.00;9.40
3308;DHT22;1666;48.898;9.182;2022-12-15T10:40:57;0.10;7.70
3308;DHT22;1666;48.898;9.182;2022-12-15T10:43:32;0.20;6.80
3308;DHT22;1666;48.898;9.182;2022-12-15T10:46:10;0.40;8.10
3308;DHT22;1666;48.898;9.182;2022-12-15T10:48:42;0.40;5.30
3308;DHT22;1666;48.898;9.182;2022-12-15T10:51:20;0.30;6.00
3308;DHT22;1666;48.898;9.182;2022-12-15T10:53:52;0.50;3.30
3308;DHT22;1666;48.898;9.182;2022-12-15T10:56:24;0.40;2.40
3308;DHT22;1666;48.898;9.182;2022-12-15T10:59:22;0.40;2.40
3308;DHT22;1666;48.898;9.182;2022-12-15T11:01:52;0.30;3.30
3308;DHT22;1666;48.898;9.182;2022-12-15T11:04:26;0.20;3.50
3308;DHT22;1666;48.898;9.182;2022-12-15T11:06:57;0.00;5.80
3308;DHT22;1666;48.898;9.182;2022-12-15T11:09:31;0.00;4.40
3308;DHT22;1666;48.898;9.182;2022-12-15T11:12:16;0.10;4.30
3308;DHT22;1666;48.898;9.182;2022-12-15T11:15:01;0.00;4.20
3308;DHT22;1666;48.898;9.182;2022-12-15T11:17:38;0.00;4.90
3308;DHT22;1666;48.898;9.182;2022-12-15T11:20:17;0.00;4.30
3308;DHT22;1666;48.898;9.182;2022-12-15T11:22:52;0.10;5.00
3308;DHT22;1666;48.898;9.182;2022-12-15T11:25:30;0.10;4.70
3308;DHT22;1666;48.898;9.182;2022-12-15T11:28:07;0.20;3.60
3308;DHT22;1666;48.898;9.182;2022-12-15T11:30:46;0.10;3.20
3308;DHT22;1666;48.898;9.182;2022-12-15T11:33:18;0.10;4.10
3308;DHT22;1666;48.898;9.182;2022-12-15T11:35:57;0.00;4.30
3308;DHT22;1666;48.898;9.182;2022-12-15T11:38:37;0.20;5.40
3308;DHT22;1666;48.898;9.182;2022-12-15T11:41:16;0.30;5.10
3308;DHT22;1666;48.898;9.182;2022-12-15T11:44:10;0.40;5.20
3308;DHT22;1666;48.898;9.182;2022-12-15T11:46:53;0.40;4.60
3308;DHT22;1666;48.898;9.182;2022-12-15T11:49:38;0.40;4.30
3308;DHT22;1666;48.898;9.182;2022-12-15T11:52:19;0.50;4.30
3308;DHT22;1666;48.898;9.182;2022-12-15T11:54:53;0.40;3.90
3308;DHT22;1666;48.898;9.182;2022-12-15T11:57:45;0.40;4.00
3308;DHT22;1666;48.898;9.182;2022-12-15T12:00:20;0.40;4.20
3308;DHT22;1666;48.898;9.182;2022-12-15T12:03:01;0.40;4.60
3308;DHT22;1666;48.898;9.182;2022-12-15T12:05:53;0.40;3.70
3308;DHT22;1666;48.898;9.182;2022-12-15T12:08:42;0.50;4.60
3308;DHT22;1666;48.898;9.182;2022-12-15T12:11:40;0.50;3.70
3308;DHT22;1666;48.898;9.182;2022-12-15T12:14:26;0.40;3.90
3308;DHT22;1666;48.898;9.182;2022-12-15T12:17:04;0.40;5.00
3308;DHT22;1666;48.898;9.182;2022-12-15T12:19:41;0.30;4.60
3308;DHT22;1666;48.898;9.182;2022-12-15T12:22:22;0.40;5.10
3308;DHT22;1666;48.898;9.182;2022-12-15T12:24:57;0.40;4.80
3308;DHT22;1666;48.898;9.182;2022-12-15T12:27:35;0.40;5.30
3308;DHT22;1666;48.898;9.182;2022-12-15T12:30:12;0.50;5.40
3308;DHT22;1666;48.898;9.182;2022-12-15T12:32:48;0.60;5.50
3308;DHT22;1666;48.898;9.182;2022-12-15T12:35:27;0.60;4.70
3308;DHT22;1666;48.898;9.182;2022-12-15T12:38:01;0.40;5.20
3308;DHT22;1666;48.898;9.182;2022-12-15T12:40:51;0.50;4.70
3308;DHT22;1666;48.898;9.182;2022-12-15T12:43:30;0.50;5.00
3308;DHT22;1666;48.898;9.182;2022-12-15T12:46:07;0.60;5.30
3308;DHT22;1666;48.898;9.182;2022-12-15T12:48:43;0.60;4.70
3308;DHT22;1666;48.898;9.182;2022-12-15T12:51:23;0.70;4.60
3308;DHT22;1666;48.898;9.182;2022-12-15T12:53:55;0.60;4.30
3308;DHT22;1666;48.898;9.182;2022-12-15T12:56:44;0.80;4.10
3308;DHT22;1666;48.898;9.182;2022-12-15T12:59:33;0.70;4.10
3308;DHT22;1666;48.898;9.182;2022-12-15T13:02:40;0.80;3.20
3308;DHT22;1666;48.898;9.182;2022-12-15T13:05:25;0.80;3.50
3308;DHT22;1666;48.898;9.182;2022-12-15T13:14:47;0.90;3.30
3308;DHT22;1666;48.898;9.182;2022-12-15T13:17:28;0.90;3.10
3308;DHT22;1666;48.898;9.182;2022-12-15T13:20:24;0.90;3.70
3308;DHT22;1666;48.898;9.182;2022-12-15T13:23:15;1.00;3.40
3308;DHT22;1666;48.898;9.182;2022-12-15T13:26:03;0.90;2.70
3308;DHT22;1666;48.898;9.182;2022-12-15T13:28:44;0.70;2.60
3308;DHT22;1666;48.898;9.182;2022-12-15T13:31:25;0.80;3.50
3308;DHT22;1666;48.898;9.182;2022-12-15T13:34:05;0.80;4.50
3308;DHT22;1666;48.898;9.182;2022-12-15T13:42:28;0.80;4.00
3308;DHT22;1666;48.898;9.182;2022-12-15T13:45:37;0.90;4.70
3308;DHT22;1666;48.898;9.182;2022-12-15T13:48:32;0.80;4.50
3308;DHT22;1666;48.898;9.182;2022-12-15T13:51:27;0.80;5.20
3308;DHT22;1666;48.898;9.182;2022-12-15T13:54:02;0.90;4.50
3308;DHT22;1666;48.898;9.182;2022-12-15T13:56:40;0.90;4.30
3308;DHT22;1666;48.898;9.182;2022-12-15T13:59:33;0.90;3.40
3308;DHT22;1666;48.898;9.182;2022-12-15T14:02:22;0.80;4.30
3308;DHT22;1666;48.898;9.182;2022-12-15T14:05:08;0.80;5.10
3308;DHT22;1666;48.898;9.182;2022-12-15T14:07:43;0.80;5.10
3308;DHT22;1666;48.898;9.182;2022-12-15T14:10:38;0.80;5.40
3308;DHT22;1666;48.898;9.182;2022-12-15T14:13:12;0.80;5.60
3308;DHT22;1666;48.898;9.182;2022-12-15T14:15:49;0.80;6.40
3308;DHT22;1666;48.898;9.182;2022-12-15T14:18:26;0.80;6.00
3308;DHT22;1666;48.898;9.182;2022-12-15T14:21:00;0.80;6.40
3308;DHT22;1666;48.898;9.182;2022-12-15T14:23:38;0.70;6.60
3308;DHT22;1666;48.898;9.182;2022-12-15T14:26:28;0.70;6.20
3308;DHT22;1666;48.898;9.182;2022-12-15T14:29:00;0.70;7.60
3308;DHT22;1666;48.898;9.182;2022-12-15T14:31:36;0.70;7.60
3308;DHT22;1666;48.898;9.182;2022-12-15T14:34:10;0.70;7.80
3308;DHT22;1666;48.898;9.182;2022-12-15T14:36:41;0.70;8.00
3308;DHT22;1666;48.898;9.182;2022-12-15T14:39:17;0.70;7.30
3308;DHT22;1666;48.898;9.182;2022-12-15T14:41:50;0.70;7.60
3308;DHT22;1666;48.898;9.182;2022-12-15T14:44:28;0.70;7.00
3308;DHT22;1666;48.898;9.182;2022-12-15T14:47:17;0.70;8.10
3308;DHT22;1666;48.898;9.182;2022-12-15T14:49:49;0.70;8.10
3308;DHT22;1666;48.898;9.182;2022-12-15T14:52:26;0.70;8.60
3308;DHT22;1666;48.898;9.182;2022-12-15T14:54:58;0.70;8.40
3308;DHT22;1666;48.898;9.182;2022-12-15T14:57:39;0.70;7.50
3308;DHT22;1666;48.898;9.182;2022-12-15T15:00:23;0.70;8.40
3308;DHT22;1666;48.898;9.182;2022-12-15T15:03:21;0.60;8.10
3308;DHT22;1666;48.898;9.182;2022-12-15T15:05:54;0.70;8.60
3308;DHT22;1666;48.898;9.182;2022-12-15T15:08:28;0.70;9.20
3308;DHT22;1666;48.898;9.182;2022-12-15T15:11:01;0.70;9.40
3308;DHT22;1666;48.898;9.182;2022-12-15T15:13:36;0.60;9.30
3308;DHT22;1666;48.898;9.182;2022-12-15T15:16:14;0.60;9.40
3308;DHT22;1666;48.898;9.182;2022-12-15T15:18:52;0.60;8.60
3308;DHT22;1666;48.898;9.182;2022-12-15T15:21:24;0.60;8.20
3308;DHT22;1666;48.898;9.182;2022-12-15T15:23:59;0.60;7.90
3308;DHT22;1666;48.898;9.182;2022-12-15T15:26:29;0.60;7.90
3308;DHT22;1666;48.898;9.182;2022-12-15T15:29:01;0.60;8.00
3308;DHT22;1666;48.898;9.182;2022-12-15T15:31:34;0.60;7.60
3308;DHT22;1666;48.898;9.182;2022-12-15T15:34:10;0.70;8.00
3308;DHT22;1666;48.898;9.182;2022-12-15T15:36:40;0.70;8.20
3308;DHT22;1666;48.898;9.182;2022-12-15T15:39:12;0.60;7.40
3308;DHT22;1666;48.898;9.182;2022-12-15T15:41:45;0.60;8.50
3308;DHT22;1666;48.898;9.182;2022-12-15T15:44:15;0.60;9.10
3308;DHT22;1666;48.898;9.182;2022-12-15T15:46:47;0.60;9.20
3308;DHT22;1666;48.898;9.182;2022-12-15T15:49:20;0.60;9.90
3308;DHT22;1666;48.898;9.182;2022-12-15T15:51:51;0.60;9.80
3308;DHT22;1666;48.898;9.182;2022-12-15T15:54:28;0.60;9.20
3308;DHT22;1666;48.898;9.182;2022-12-15T15:56:59;0.60;9.50
3308;DHT22;1666;48.898;9.182;2022-12-15T15:59:29;0.60;9.80
3308;DHT22;1666;48.898;9.182;2022-12-15T16:01:59;0.60;10.10
3308;DHT22;1666;48.898;9.182;2022-12-15T16:04:31;0.50;11.00
3308;DHT22;1666;48.898;9.182;2022-12-15T16:07:03;0.80;13.20
3308;DHT22;1666;48.898;9.182;2022-12-15T16:09:33;0.60;10.50
3308;DHT22;1666;48.898;9.182;2022-12-15T16:12:04;0.50;11.20
3308;DHT22;1666;48.898;9.182;2022-12-15T16:14:34;0.60;12.40
3308;DHT22;1666;48.898;9.182;2022-12-15T16:17:08;0.60;12.30
3308;DHT22;1666;48.898;9.182;2022-12-15T16:19:40;0.60;12.50
3308;DHT22;1666;48.898;9.182;2022-12-15T16:22:13;0.50;11.20
3308;DHT22;1666;48.898;9.182;2022-12-15T16:24:44;0.50;11.70
3308;DHT22;1666;48.898;9.182;2022-12-15T16:27:14;0.50;12.40
3308;DHT22;1666;48.898;9.182;2022-12-15T16:29:44;0.40;11.50
3308;DHT22;1666;48.898;9.182;2022-12-15T16:32:14;0.40;11.70
3308;DHT22;1666;48.898;9.182;2022-12-15T16:34:47;0.40;11.30
3308;DHT22;1666;48.898;9.182;2022-12-15T16:37:24;0.40;11.30
3308;DHT22;1666;48.898;9.182;2022-12-15T16:39:54;0.40;12.20
3308;DHT22;1666;48.898;9.182;2022-12-15T16:42:24;0.30;11.50
3308;DHT22;1666;48.898;9.182;2022-12-15T16:44:53;0.40;12.60
3308;DHT22;1666;48.898;9.182;2022-12-15T16:47:23;0.30;12.00
3308;DHT22;1666;48.898;9.182;2022-12-15T16:49:57;0.30;12.40
3308;DHT22;1666;48.898;9.182;2022-12-15T16:52:27;0.40;13.20
3308;DHT22;1666;48.898;9.182;2022-12-15T16:54:57;0.30;12.80
3308;DHT22;1666;48.898;9.182;2022-12-15T16:57:27;0.20;12.50
3308;DHT22;1666;48.898;9.182;2022-12-15T16:59:57;0.20;12.30
3308;DHT22;1666;48.898;9.182;2022-12-15T17:02:27;0.20;12.40
3308;DHT22;1666;48.898;9.182;2022-12-15T17:05:02;0.20;13.00
3308;DHT22;1666;48.898;9.182;2022-12-15T17:07:32;0.30;13.10
3308;DHT22;1666;48.898;9.182;2022-12-15T17:10:03;0.30;12.80
3308;DHT22;1666;48.898;9.182;2022-12-15T17:12:33;0.30;13.20
3308;DHT22;1666;48.898;9.182;2022-12-15T17:15:10;0.30;12.40
3308;DHT22;1666;48.898;9.182;2022-12-15T17:17:44;0.30;11.90
3308;DHT22;1666;48.898;9.182;2022-12-15T17:20:19;0.20;11.90
3308;DHT22;1666;48.898;9.182;2022-12-15T17:23:00;0.20;12.00
3308;DHT22;1666;48.898;9.182;2022-12-15T17:25:34;0.20;11.80
3308;DHT22;1666;48.898;9.182;2022-12-15T17:28:28;0.10;11.60
3308;DHT22;1666;48.898;9.182;2022-12-15T17:30:59;0.20;13.10
3308;DHT22;1666;48.898;9.182;2022-12-15T17:33:31;0.10;11.80
3308;DHT22;1666;48.898;9.182;2022-12-15T17:36:12;0.20;12.50
3308;DHT22;1666;48.898;9.182;2022-12-15T17:38:43;0.20;12.10
3308;DHT22;1666;48.898;9.182;2022-12-15T17:41:13;0.20;11.60
3308;DHT22;1666;48.898;9.182;2022-12-15T17:44:09;0.20;11.70
3308;DHT22;1666;48.898;9.182;2022-12-15T17:47:06;0.10;11.00